Time;durP1;ratioP1;P1;durP2;ratioP2;P2;SDS_P1;SDS_P2;PMS_P1;PMS_P2;Temp;Humidity;BMP_temperature;BMP_pressure;BME280_temperature;BME280_humidity;BME280_pressure;Samples;Min_cycle;Max_cycle;Signal;HPM_P1;HPM_P2
2023/05/19 00:01:27;;;;;;;;;;;;;;;12.30;64.98;93031.66;2054754;69;20141;-73
2023/05/19 00:03:53;;;;;;;;;;;;;;;12.25;64.65;93027.13;2054286;69;20161;-73
2023/05/19 00:06:23;;;;;;;;;;;;;;;12.32;63.90;93015.56;2054837;69;20054;-73
2023/05/19 00:08:55;;;;;;;;;;;;;;;12.24;65.22;93015.13;2054411;69;20129;-73
2023/05/19 00:11:22;;;;;;;;;;;;;;;12.27;64.23;93021.59;2054795;69;20085;-73
2023/05/19 00:13:49;;;;;;;;;;;;;;;12.16;64.53;93011.78;2054714;69;20571;-73
2023/05/19 00:16:15;;;;;;;;;;;;;;;12.15;64.69;93010.34;2054892;69;20133;-73
2023/05/19 00:18:42;;;;;;;;;;;;;;;12.23;64.29;93007.25;2054750;69;20063;-73
2023/05/19 00:21:13;;;;;;;;;;;;;;;12.18;64.78;93018.28;2054734;69;20430;-74
2023/05/19 00:23:41;;;;;;;;;;;;;;;12.14;65.32;93012.41;2054227;70;20054;-72
2023/05/19 00:26:07;;;;;;;;;;;;;;;12.14;65.50;93009.59;2054704;69;20043;-75
2023/05/19 00:28:34;;;;;;;;;;;;;;;12.15;65.46;93010.34;2054750;69;20062;-73
2023/05/19 00:31:01;;;;;;;;;;;;;;;12.14;66.18;93011.66;2054861;69;20060;-73
2023/05/19 00:33:26;;;;;;;;;;;;;;;12.07;66.03;93002.09;2054802;69;20058;-73
2023/05/19 00:35:52;;;;;;;;;;;;;;;12.12;65.89;93003.09;2054386;70;20433;-74
2023/05/19 00:38:18;;;;;;;;;;;;;;;12.09;64.95;93004.31;2054828;69;20082;-74
2023/05/19 00:40:44;;;;;;;;;;;;;;;12.13;65.32;92998.91;2054282;70;20098;-75
2023/05/19 00:43:11;;;;;;;;;;;;;;;12.06;66.03;93002.72;2054403;69;20066;-74
2023/05/19 00:45:37;;;;;;;;;;;;;;;12.10;65.44;93006.53;2054693;70;20050;-73
2023/05/19 00:48:03;;;;;;;;;;;;;;;12.11;65.58;93005.19;2054717;69;20058;-73
2023/05/19 00:50:29;;;;;;;;;;;;;;;12.06;66.34;93008.38;2054738;69;20484;-73
2023/05/19 00:52:56;;;;;;;;;;;;;;;12.09;65.75;93007.13;2055113;69;20452;-74
2023/05/19 00:55:25;;;;;;;;;;;;;;;12.09;65.58;93007.13;2054271;70;20046;-74
2023/05/19 00:57:50;;;;;;;;;;;;;;;12.05;65.65;93006.88;2054867;70;20054;-72
2023/05/19 01:00:16;;;;;;;;;;;;;;;12.06;65.69;93005.56;2054851;70;20077;-73
2023/05/19 01:02:42;;;;;;;;;;;;;;;12.01;65.86;93004.56;2054362;70;20113;-73
2023/05/19 01:05:08;;;;;;;;;;;;;;;11.97;65.68;93006.41;2054281;70;20054;-73
2023/05/19 01:07:33;;;;;;;;;;;;;;;11.95;66.18;93004.91;2054857;69;20125;-73
2023/05/19 01:09:59;;;;;;;;;;;;;;;11.98;66.20;92999.41;2054552;70;20058;-73
2023/05/19 01:12:25;;;;;;;;;;;;;;;11.90;66.59;93000.38;2054722;69;20046;-73
2023/05/19 01:14:51;;;;;;;;;;;;;;;11.97;65.84;92998.69;2054795;69;20054;-73
2023/05/19 01:17:16;;;;;;;;;;;;;;;11.95;66.63;92999.28;2054735;69;20050;-73
2023/05/19 01:19:42;;;;;;;;;;;;;;;11.94;66.55;93002.72;2054126;70;20043;-73
2023/05/19 01:22:13;;;;;;;;;;;;;;;11.86;67.03;93002.97;2054670;69;20136;-73
2023/05/19 01:24:39;;;;;;;;;;;;;;;11.87;66.79;93000.91;2054705;69;20116;-73
2023/05/19 01:27:04;;;;;;;;;;;;;;;11.83;66.99;93003.47;2054114;70;20086;-73
2023/05/19 01:29:29;;;;;;;;;;;;;;;11.86;66.38;93011.41;2054949;69;20050;-73
2023/05/19 01:31:57;;;;;;;;;;;;;;;11.86;66.33;93005.03;2054266;70;20050;-74
2023/05/19 01:34:25;;;;;;;;;;;;;;;11.85;66.55;93001.50;2054509;69;20119;-73
2023/05/19 01:36:52;;;;;;;;;;;;;;;11.85;66.92;93001.50;2054857;70;20047;-73
2023/05/19 01:39:19;;;;;;;;;;;;;;;11.89;66.71;92998.91;2054568;69;20069;-74
2023/05/19 01:41:45;;;;;;;;;;;;;;;11.78;67.07;92994.00;2054697;70;20054;-74
2023/05/19 01:44:11;;;;;;;;;;;;;;;11.75;67.36;92998.03;2054629;69;20054;-73
2023/05/19 01:46:37;;;;;;;;;;;;;;;11.76;67.41;92999.50;2054035;70;20118;-73
2023/05/19 01:49:02;;;;;;;;;;;;;;;11.79;66.63;92994.72;2054645;69;20133;-74
2023/05/19 01:51:28;;;;;;;;;;;;;;;11.84;66.41;93000.03;2054161;70;20108;-73
2023/05/19 01:53:54;;;;;;;;;;;;;;;11.75;66.30;93000.13;2054741;69;20152;-74
2023/05/19 01:56:27;;;;;;;;;;;;;;;11.81;66.01;93009.69;2054450;69;20066;-73
2023/05/19 01:58:58;;;;;;;;;;;;;;;11.82;66.12;93002.72;2053958;70;20054;-73
2023/05/19 02:01:26;;;;;;;;;;;;;;;11.75;66.60;92997.31;2054069;70;20055;-74
2023/05/19 02:04:04;;;;;;;;;;;;;;;11.76;66.49;92999.50;2054126;70;20058;-74
2023/05/19 02:06:50;;;;;;;;;;;;;;;11.77;66.20;92997.41;2054126;70;20050;-74
2023/05/19 02:09:34;;;;;;;;;;;;;;;11.71;65.90;92992.88;2054534;70;20137;-74
2023/05/19 02:12:08;;;;;;;;;;;;;;;11.79;66.32;93000.38;2054743;69;20050;-74
2023/05/19 02:14:39;;;;;;;;;;;;;;;11.71;66.05;92997.78;2054712;69;20050;-73
2023/05/19 02:17:05;;;;;;;;;;;;;;;11.68;67.07;92999.75;2054162;70;20086;-74
2023/05/19 02:19:32;;;;;;;;;;;;;;;11.72;67.29;92999.25;2054112;70;20139;-73
2023/05/19 02:21:58;;;;;;;;;;;;;;;11.69;67.09;93000.50;2054216;70;20057;-72
2023/05/19 02:24:24;;;;;;;;;;;;;;;11.63;68.18;92998.00;2054728;69;20058;-75
2023/05/19 02:26:51;;;;;;;;;;;;;;;11.70;67.16;92997.03;2054806;69;20516;-74
2023/05/19 02:29:18;;;;;;;;;;;;;;;11.69;67.70;92989.94;2054703;69;20592;-75
2023/05/19 02:31:43;;;;;;;;;;;;;;;11.63;67.75;92992.38;2054514;69;20525;-75
2023/05/19 02:34:10;;;;;;;;;;;;;;;11.69;67.37;92994.84;2054606;69;20575;-74
2023/05/19 02:36:35;;;;;;;;;;;;;;;11.75;66.66;93000.13;2054039;70;20150;-74
2023/05/19 02:39:01;;;;;;;;;;;;;;;11.68;67.14;92993.34;2054691;69;20066;-74
2023/05/19 02:41:27;;;;;;;;;;;;;;;11.70;66.84;92993.50;2051061;70;20070;-73
2023/05/19 02:43:53;;;;;;;;;;;;;;;11.66;67.82;92990.41;2054156;69;20051;-73
2023/05/19 02:46:19;;;;;;;;;;;;;;;11.60;68.72;92987.25;2054315;70;20081;-72
2023/05/19 02:48:44;;;;;;;;;;;;;;;11.70;66.49;92982.94;2055226;69;20078;-71
2023/05/19 02:51:10;;;;;;;;;;;;;;;11.69;67.42;92986.38;2055041;69;20117;-72
2023/05/19 02:53:35;;;;;;;;;;;;;;;11.69;67.29;92978.66;2054563;70;20539;-72
2023/05/19 02:56:01;;;;;;;;;;;;;;;11.65;67.28;92974.84;2057089;69;20117;-73
2023/05/19 02:58:26;;;;;;;;;;;;;;;11.62;67.99;92971.16;2055129;69;20138;-73
2023/05/19 03:00:52;;;;;;;;;;;;;;;11.71;66.71;92978.03;2055010;70;20055;-73
2023/05/19 03:03:18;;;;;;;;;;;;;;;11.57;67.89;92977.16;2055194;69;20216;-74
2023/05/19 03:05:44;;;;;;;;;;;;;;;11.43;68.14;92977.03;2054515;70;20504;-73
2023/05/19 03:08:10;;;;;;;;;;;;;;;11.52;67.77;92970.56;2054525;70;20500;-73
2023/05/19 03:10:35;;;;;;;;;;;;;;;11.43;67.84;92965.75;2051394;70;20055;-73
2023/05/19 03:13:01;;;;;;;;;;;;;;;11.47;67.53;92959.63;2055044;69;20138;-73
2023/05/19 03:15:26;;;;;;;;;;;;;;;11.43;67.52;92963.66;2054466;69;20089;-74
2023/05/19 03:17:52;;;;;;;;;;;;;;;11.25;68.66;92956.91;2055062;69;20481;-74
2023/05/19 03:20:19;;;;;;;;;;;;;;;11.12;68.44;92958.22;2054239;70;20101;-75
2023/05/19 03:22:44;;;;;;;;;;;;;;;11.05;69.50;92959.19;2055077;69;20053;-73
2023/05/19 03:25:10;;;;;;;;;;;;;;;11.29;67.74;92953.59;2054902;69;20047;-73
2023/05/19 03:27:35;;;;;;;;;;;;;;;11.33;67.85;92962.31;2055135;70;20058;-73
2023/05/19 03:30:01;;;;;;;;;;;;;;;11.33;68.32;92962.31;2054709;70;20413;-73
2023/05/19 03:32:26;;;;;;;;;;;;;;;11.39;67.80;92957.03;2054125;70;20066;-73
2023/05/19 03:34:52;;;;;;;;;;;;;;;11.49;67.72;92956.94;2054850;70;20066;-72
2023/05/19 03:37:18;;;;;;;;;;;;;;;11.48;67.70;92958.28;2054244;70;20038;-74
2023/05/19 03:39:43;;;;;;;;;;;;;;;11.48;67.45;92959.03;2054487;70;20461;-74
2023/05/19 03:42:09;;;;;;;;;;;;;;;11.52;67.34;92967.00;2054487;70;20070;-73
2023/05/19 03:44:35;;;;;;;;;;;;;;;11.45;68.47;92963.81;2054868;69;20066;-74
2023/05/19 03:47:02;;;;;;;;;;;;;;;11.39;68.39;92963.41;2054934;69;20121;-75
2023/05/19 03:49:39;;;;;;;;;;;;;;;11.41;68.64;92957.91;2055081;69;20151;-74
2023/05/19 03:52:08;;;;;;;;;;;;;;;11.44;68.06;92959.50;2054883;69;20062;-73
2023/05/19 03:54:51;;;;;;;;;;;;;;;11.40;68.05;92962.06;2054830;69;20055;-74
2023/05/19 03:57:26;;;;;;;;;;;;;;;11.43;68.17;92966.50;2054452;70;20066;-74
2023/05/19 03:59:55;;;;;;;;;;;;;;;11.41;68.47;92971.28;2054534;70;20498;-74
2023/05/19 04:02:21;;;;;;;;;;;;;;;11.42;67.96;92975.56;2054826;69;20053;-75
2023/05/19 04:04:47;;;;;;;;;;;;;;;11.37;68.83;92971.75;2054820;69;20090;-74
2023/05/19 04:07:13;;;;;;;;;;;;;;;11.39;68.56;92971.88;2051819;70;20518;-73
2023/05/19 04:09:41;;;;;;;;;;;;;;;11.44;68.38;92967.97;2054221;70;20501;-74
2023/05/19 04:12:06;;;;;;;;;;;;;;;11.49;67.80;92966.13;2054600;69;20442;-74
2023/05/19 04:14:34;;;;;;;;;;;;;;;11.47;67.89;92976.56;2052212;70;20436;-76
2023/05/19 04:16:59;;;;;;;;;;;;;;;11.25;69.70;92961.81;2050904;70;20496;-73
2023/05/19 04:19:25;;;;;;;;;;;;;;;11.19;69.66;92971.34;2051328;69;20180;-74
2023/05/19 04:21:51;;;;;;;;;;;;;;;11.31;69.10;92973.44;2050861;70;20067;-73
2023/05/19 04:24:16;;;;;;;;;;;;;;;11.46;67.99;92967.38;2050714;70;20097;-74
2023/05/19 04:26:44;;;;;;;;;;;;;;;11.48;68.90;92972.38;2050760;70;20047;-74
2023/05/19 04:29:12;;;;;;;;;;;;;;;11.59;68.17;92982.91;2050827;70;20047;-73
2023/05/19 04:31:42;;;;;;;;;;;;;;;11.59;68.63;92977.28;2050955;70;20085;-75
2023/05/19 04:34:13;;;;;;;;;;;;;;;11.63;68.01;92980.34;2050879;70;20054;-74
2023/05/19 04:36:39;;;;;;;;;;;;;;;11.73;67.78;92981.00;2050740;70;20078;-73
2023/05/19 04:39:06;;;;;;;;;;;;;;;11.68;68.19;92987.72;2050736;70;20055;-73
2023/05/19 04:41:33;;;;;;;;;;;;;;;11.62;67.84;92987.34;2050434;70;20062;-74
2023/05/19 04:44:00;;;;;;;;;;;;;;;11.63;68.33;92983.91;2050866;70;20482;-73
2023/05/19 04:46:26;;;;;;;;;;;;;;;11.74;68.35;92984.56;2051361;70;20053;-75
2023/05/19 04:48:54;;;;;;;;;;;;;;;11.68;67.84;92982.06;2050842;70;20440;-74
2023/05/19 04:51:19;;;;;;;;;;;;;;;11.73;67.17;92989.47;2050866;70;20161;-74
2023/05/19 04:53:45;;;;;;;;;;;;;;;11.79;67.84;92994.72;2051691;70;20413;-74
2023/05/19 04:56:14;;;;;;;;;;;;;;;11.86;67.59;92997.31;2050773;70;20146;-74
2023/05/19 04:58:40;;;;;;;;;;;;;;;11.40;68.91;92984.63;2050889;70;20055;-74
2023/05/19 05:01:06;;;;;;;;;;;;;;;11.56;68.23;92982.09;2051351;69;20137;-74
2023/05/19 05:03:33;;;;;;;;;;;;;;;11.61;68.40;92988.69;2050847;70;20150;-74
2023/05/19 05:05:59;;;;;;;;;;;;;;;11.50;68.80;92989.41;2050832;70;20145;-74
2023/05/19 05:08:26;;;;;;;;;;;;;;;11.71;67.74;92983.69;2050829;70;20143;-74
2023/05/19 05:10:52;;;;;;;;;;;;;;;11.73;68.17;92989.47;2050657;70;20134;-74
2023/05/19 05:13:20;;;;;;;;;;;;;;;11.91;66.85;92998.28;2048028;70;20141;-74
2023/05/19 05:15:46;;;;;;;;;;;;;;;12.09;65.98;92996.56;2050878;70;20050;-74
2023/05/19 05:18:13;;;;;;;;;;;;;;;11.82;67.98;92996.31;2050884;70;20085;-74
2023/05/19 05:20:39;;;;;;;;;;;;;;;11.67;68.28;92989.06;2051377;70;20070;-74
2023/05/19 05:23:05;;;;;;;;;;;;;;;11.57;69.10;92991.28;2048043;70;20502;-74
2023/05/19 05:25:32;;;;;;;;;;;;;;;11.42;68.94;92989.66;2050674;70;20086;-74
2023/05/19 05:27:58;;;;;;;;;;;;;;;11.62;68.48;92990.16;2050918;70;20079;-73
2023/05/19 05:30:24;;;;;;;;;;;;;;;11.78;67.73;92985.53;2050779;70;20047;-74
2023/05/19 05:32:50;;;;;;;;;;;;;;;12.13;66.64;92979.16;2050734;70;20074;-74
2023/05/19 05:35:30;;;;;;;;;;;;;;;12.39;65.17;92985.63;2050673;70;20047;-74
2023/05/19 05:37:55;;;;;;;;;;;;;;;12.26;65.82;92989.81;2047876;70;20146;-74
2023/05/19 05:40:21;;;;;;;;;;;;;;;12.01;67.16;92995.38;2048017;70;20084;-74
2023/05/19 05:42:46;;;;;;;;;;;;;;;11.63;67.71;92988.81;2050759;70;20062;-74
2023/05/19 05:45:12;;;;;;;;;;;;;;;11.94;66.75;92977.34;2050738;70;20053;-74
2023/05/19 05:47:40;;;;;;;;;;;;;;;12.25;66.17;92988.34;2050688;70;20103;-74
2023/05/19 05:50:07;;;;;;;;;;;;;;;12.45;65.14;92992.34;2050774;70;20058;-74
2023/05/19 05:52:34;;;;;;;;;;;;;;;12.49;65.15;92993.94;2050761;70;20107;-74
2023/05/19 05:55:00;;;;;;;;;;;;;;;12.55;64.36;92995.03;2050661;70;20074;-74
2023/05/19 05:57:29;;;;;;;;;;;;;;;12.69;63.62;92992.28;2050778;70;20058;-74
2023/05/19 05:59:55;;;;;;;;;;;;;;;12.83;63.41;92993.13;2051457;70;20047;-74
2023/05/19 06:02:21;;;;;;;;;;;;;;;12.85;63.08;92996.06;2050767;70;20054;-74
2023/05/19 06:04:46;;;;;;;;;;;;;;;12.80;63.42;92993.63;2050674;70;20070;-74
2023/05/19 06:07:12;;;;;;;;;;;;;;;12.74;63.10;92988.38;2050721;70;20505;-74
2023/05/19 06:09:38;;;;;;;;;;;;;;;12.51;64.06;92985.59;2050455;70;20497;-74
2023/05/19 06:12:05;;;;;;;;;;;;;;;12.70;63.65;92986.03;2050598;70;20062;-74
2023/05/19 06:14:35;;;;;;;;;;;;;;;12.97;63.79;92973.41;2050655;70;20050;-75
2023/05/19 06:17:27;;;;;;;;;;;;;;;13.27;62.18;92982.13;2047812;70;20054;-74
2023/05/19 06:19:53;;;;;;;;;;;;;;;13.42;61.74;92975.91;2050717;70;20055;-74
2023/05/19 06:22:18;;;;;;;;;;;;;;;13.37;62.28;92974.94;2050960;70;20043;-75
2023/05/19 06:24:44;;;;;;;;;;;;;;;13.23;62.90;92979.81;2051975;70;20145;-76
2023/05/19 06:27:09;;;;;;;;;;;;;;;13.59;61.98;92974.69;2051075;70;20081;-76
2023/05/19 06:29:35;;;;;;;;;;;;;;;13.16;62.37;92973.06;2051130;70;20050;-74
2023/05/19 06:32:04;;;;;;;;;;;;;;;13.57;61.43;92975.31;2051281;70;20053;-75
2023/05/19 06:34:30;;;;;;;;;;;;;;;13.13;61.25;92968.66;2051151;70;20050;-75
2023/05/19 06:36:55;;;;;;;;;;;;;;;13.03;61.61;92973.00;2051213;70;20059;-76
2023/05/19 06:39:21;;;;;;;;;;;;;;;13.43;60.65;92975.28;2050901;70;20047;-76
2023/05/19 06:41:47;;;;;;;;;;;;;;;13.56;60.30;92970.28;2051008;70;20058;-75
2023/05/19 06:44:27;;;;;;;;;;;;;;;13.33;60.32;92971.91;2051624;70;20047;-75
2023/05/19 06:46:53;;;;;;;;;;;;;;;13.78;59.65;92971.47;2051625;70;20047;-75
2023/05/19 06:49:19;;;;;;;;;;;;;;;13.85;58.71;92973.28;2051066;70;20174;-75
2023/05/19 06:51:46;;;;;;;;;;;;;;;14.07;58.07;92970.88;2055196;69;20061;-75
2023/05/19 06:54:14;;;;;;;;;;;;;;;13.86;58.58;92977.56;2057609;69;20074;-75
2023/05/19 06:56:40;;;;;;;;;;;;;;;13.83;58.94;92970.31;2057556;69;20077;-75
2023/05/19 06:59:06;;;;;;;;;;;;;;;13.55;59.33;92963.88;2058172;69;20093;-74
2023/05/19 07:01:35;;;;;;;;;;;;;;;13.86;59.62;92963.41;2057666;69;20081;-74
2023/05/19 07:04:01;;;;;;;;;;;;;;;14.31;57.94;92960.06;2057615;69;20047;-74
2023/05/19 07:06:27;;;;;;;;;;;;;;;13.89;58.97;92959.34;2058255;69;20057;-74
2023/05/19 07:08:52;;;;;;;;;;;;;;;14.36;58.31;92963.84;2057595;69;20047;-75
2023/05/19 07:11:18;;;;;;;;;;;;;;;14.67;57.93;92955.56;2058073;69;20146;-75
2023/05/19 07:13:45;;;;;;;;;;;;;;;14.35;57.87;92956.72;2057616;69;20050;-75
2023/05/19 07:16:14;;;;;;;;;;;;;;;13.76;58.44;92953.66;2058142;69;20061;-75
2023/05/19 07:18:39;;;;;;;;;;;;;;;14.59;57.71;92957.97;2054835;69;20066;-75
2023/05/19 07:21:06;;;;;;;;;;;;;;;14.46;57.23;92959.44;2058132;69;20056;-75
2023/05/19 07:23:31;;;;;;;;;;;;;;;14.52;57.56;92953.34;2057597;69;20046;-75
2023/05/19 07:25:57;;;;;;;;;;;;;;;14.84;56.58;92951.41;2057455;69;20219;-75
2023/05/19 07:28:22;;;;;;;;;;;;;;;14.26;57.34;92947.09;2058097;69;20117;-76
2023/05/19 07:30:48;;;;;;;;;;;;;;;14.48;57.15;92942.56;2058139;69;20054;-76
2023/05/19 07:33:14;;;;;;;;;;;;;;;14.59;57.40;92943.06;2056839;69;20057;-75
2023/05/19 07:35:39;;;;;;;;;;;;;;;15.03;56.65;92944.53;2057622;69;20089;-76
2023/05/19 07:38:06;;;;;;;;;;;;;;;14.70;56.87;92934.44;2057402;69;20153;-74
2023/05/19 07:40:33;;;;;;;;;;;;;;;15.14;55.83;92937.25;2057511;69;20173;-75
2023/05/19 07:42:58;;;;;;;;;;;;;;;15.34;55.16;92921.16;2057621;69;20050;-75
2023/05/19 07:45:23;;;;;;;;;;;;;;;14.73;55.60;92927.50;2057897;69;20053;-75
2023/05/19 07:47:49;;;;;;;;;;;;;;;15.10;55.20;92917.19;2057888;69;20136;-76
2023/05/19 07:50:15;;;;;;;;;;;;;;;14.76;55.85;92921.94;2058102;69;20461;-74
2023/05/19 07:52:40;;;;;;;;;;;;;;;15.16;54.80;92923.16;2058089;69;20588;-76
2023/05/19 07:55:06;;;;;;;;;;;;;;;15.37;54.82;92922.75;2057948;69;20057;-76
2023/05/19 07:57:31;;;;;;;;;;;;;;;15.20;54.56;92914.84;2058097;69;20087;-78
2023/05/19 07:59:56;;;;;;;;;;;;;;;15.24;54.14;92912.19;2058096;69;20050;-76
2023/05/19 08:02:22;;;;;;;;;;;;;;;15.65;53.29;92914.09;2058597;69;20421;-75
2023/05/19 08:04:48;;;;;;;;;;;;;;;15.64;53.26;92904.84;2058118;69;20053;-76
2023/05/19 08:07:13;;;;;;;;;;;;;;;15.86;51.65;92905.13;2058038;69;20149;-78
2023/05/19 08:09:39;;;;;;;;;;;;;;;16.13;51.78;92909.13;2058046;69;20093;-75
2023/05/19 08:12:04;;;;;;;;;;;;;;;15.39;53.91;92905.06;2057982;69;20049;-75
2023/05/19 08:14:32;;;;;;;;;;;;;;;15.91;52.62;92901.09;2058260;69;20205;-78
2023/05/19 08:16:58;;;;;;;;;;;;;;;16.09;51.75;92898.31;2057975;69;20050;-76
2023/05/19 08:19:23;;;;;;;;;;;;;;;15.93;52.09;92889.09;2058075;69;20045;-75
2023/05/19 08:21:48;;;;;;;;;;;;;;;15.94;52.33;92885.63;2057966;69;20065;-76
2023/05/19 08:24:14;;;;;;;;;;;;;;;15.84;50.93;92888.00;2058030;69;20140;-76
2023/05/19 08:26:39;;;;;;;;;;;;;;;16.21;51.41;92878.94;2058218;69;20054;-76
2023/05/19 08:29:05;;;;;;;;;;;;;;;16.35;50.34;92883.78;2058896;69;20145;-76
2023/05/19 08:31:31;;;;;;;;;;;;;;;16.64;50.05;92880.75;2058321;69;20386;-77
2023/05/19 08:33:56;;;;;;;;;;;;;;;16.11;51.56;92880.63;2058068;69;20451;-76
2023/05/19 08:36:23;;;;;;;;;;;;;;;15.99;51.58;92880.84;2058000;69;20395;-75
2023/05/19 08:38:49;;;;;;;;;;;;;;;16.56;49.98;92874.72;2057940;69;20060;-76
2023/05/19 08:41:15;;;;;;;;;;;;;;;16.02;51.00;92874.59;2057975;69;20050;-75
2023/05/19 08:43:41;;;;;;;;;;;;;;;15.65;52.44;92875.09;2057895;69;20056;-75
2023/05/19 08:46:09;;;;;;;;;;;;;;;16.23;52.14;92875.47;2057870;69;20062;-75
2023/05/19 08:48:39;;;;;;;;;;;;;;;16.22;51.69;92871.19;2057711;69;20085;-75
2023/05/19 08:51:19;;;;;;;;;;;;;;;16.79;51.42;92859.34;2057393;69;20054;-76
2023/05/19 08:53:47;;;;;;;;;;;;;;;16.85;50.08;92859.59;2057962;69;20050;-76
2023/05/19 08:56:15;;;;;;;;;;;;;;;17.26;49.28;92844.09;2057824;69;20046;-81
2023/05/19 08:58:42;;;;;;;;;;;;;;;17.10;50.20;92846.34;2058001;69;20486;-78
2023/05/19 09:01:17;;;;;;;;;;;;;;;17.38;48.08;92847.44;2057964;69;20073;-75
2023/05/19 09:03:43;;;;;;;;;;;;;;;16.66;48.93;92843.88;2057504;69;20046;-76
2023/05/19 09:06:11;;;;;;;;;;;;;;;16.86;48.90;92838.31;2057962;69;20306;-75
2023/05/19 09:08:37;;;;;;;;;;;;;;;17.07;49.61;92837.00;2057976;69;20050;-76
2023/05/19 09:11:02;;;;;;;;;;;;;;;16.56;49.00;92831.38;2057859;69;20425;-77
2023/05/19 09:13:29;;;;;;;;;;;;;;;17.27;49.37;92837.78;2057941;69;20477;-76
2023/05/19 09:15:58;;;;;;;;;;;;;;;17.47;47.70;92822.84;2057970;69;20050;-76
2023/05/19 09:18:27;;;;;;;;;;;;;;;17.92;46.42;92824.50;2058037;69;20058;-76
2023/05/19 09:20:59;;;;;;;;;;;;;;;18.41;46.88;92826.91;2058060;69;20080;-76
2023/05/19 09:23:29;;;;;;;;;;;;;;;18.32;47.06;92828.03;2057968;69;20077;-76
2023/05/19 09:25:55;;;;;;;;;;;;;;;17.42;47.70;92816.28;2057820;69;20050;-74
2023/05/19 09:28:24;;;;;;;;;;;;;;;18.04;46.46;92822.81;2057941;69;20137;-76
2023/05/19 09:30:57;;;;;;;;;;;;;;;17.91;46.46;92823.03;2058039;69;20085;-77
2023/05/19 09:33:22;;;;;;;;;;;;;;;18.74;46.78;92820.22;2058004;69;20200;-75
2023/05/19 09:35:48;;;;;;;;;;;;;;;18.06;47.05;92825.00;2057829;69;20172;-75
2023/05/19 09:38:17;;;;;;;;;;;;;;;18.29;46.35;92817.97;2057802;69;20062;-75
2023/05/19 09:40:42;;;;;;;;;;;;;;;19.16;45.07;92822.22;2057744;69;20350;-75
2023/05/19 09:43:08;;;;;;;;;;;;;;;19.65;44.46;92815.84;2057883;69;20135;-75
2023/05/19 09:45:34;;;;;;;;;;;;;;;20.14;44.25;92819.34;2057280;69;20046;-75
2023/05/19 09:48:03;;;;;;;;;;;;;;;20.46;43.15;92820.22;2057767;69;20088;-75
2023/05/19 09:50:29;;;;;;;;;;;;;;;19.75;43.87;92824.72;2057767;69;20050;-76
2023/05/19 09:52:55;;;;;;;;;;;;;;;20.39;41.27;92812.16;2057770;69;20139;-75
2023/05/19 09:55:24;;;;;;;;;;;;;;;20.50;40.96;92811.78;2057874;69;20085;-75
2023/05/19 09:57:51;;;;;;;;;;;;;;;20.71;41.45;92806.56;2058361;69;20449;-76
2023/05/19 10:00:17;;;;;;;;;;;;;;;20.12;42.24;92796.44;2058361;69;20054;-76
2023/05/19 10:02:44;;;;;;;;;;;;;;;20.78;42.22;92796.72;2058247;69;20058;-76
2023/05/19 10:05:11;;;;;;;;;;;;;;;21.57;38.79;92794.97;2057777;69;20096;-77
2023/05/19 10:07:39;;;;;;;;;;;;;;;20.81;41.85;92798.25;2058233;69;20050;-79
2023/05/19 10:10:09;;;;;;;;;;;;;;;21.53;41.29;92794.88;2058224;69;20141;-77
2023/05/19 10:12:35;;;;;;;;;;;;;;;21.72;38.73;92782.41;2058419;69;20149;-79
2023/05/19 10:15:01;;;;;;;;;;;;;;;22.15;40.07;92788.28;2058399;69;20075;-77
2023/05/19 10:17:27;;;;;;;;;;;;;;;21.74;39.03;92790.31;2057805;69;20457;-75
2023/05/19 10:19:53;;;;;;;;;;;;;;;22.11;39.54;92785.31;2060371;69;20046;-76
2023/05/19 10:22:19;;;;;;;;;;;;;;;21.74;39.93;92790.31;2060836;69;20060;-78
2023/05/19 10:24:44;;;;;;;;;;;;;;;23.35;37.01;92778.84;2058645;69;20149;-78
2023/05/19 10:27:13;;;;;;;;;;;;;;;21.45;39.02;92781.13;2057739;69;20135;-77
2023/05/19 10:29:41;;;;;;;;;;;;;;;22.66;37.69;92769.13;2058356;69;20108;-78
2023/05/19 10:32:09;;;;;;;;;;;;;;;23.48;38.17;92777.59;2057814;69;20110;-78
2023/05/19 10:34:44;;;;;;;;;;;;;;;24.52;36.58;92767.38;2058569;69;20057;-77
2023/05/19 10:37:20;;;;;;;;;;;;;;;24.61;36.08;92776.81;2058467;69;20076;-80
2023/05/19 10:39:46;;;;;;;;;;;;;;;24.72;36.59;92774.75;2058141;69;20084;-77
2023/05/19 10:42:18;;;;;;;;;;;;;;;26.28;32.31;92769.28;2058368;69;20057;-78
2023/05/19 10:44:43;;;;;;;;;;;;;;;26.69;33.08;92766.53;2058238;69;20485;-79
2023/05/19 10:47:10;;;;;;;;;;;;;;;25.21;34.54;92775.19;2058306;69;20070;-79
2023/05/19 10:49:36;;;;;;;;;;;;;;;25.75;34.33;92771.19;2057761;69;20075;-79
2023/05/19 10:52:02;;;;;;;;;;;;;;;24.80;34.66;92769.09;2058211;69;20054;-79
2023/05/19 10:54:42;;;;;;;;;;;;;;;24.02;34.36;92758.91;2058218;69;20046;-79
2023/05/19 10:57:12;;;;;;;;;;;;;;;24.68;35.74;92754.56;2058132;69;20073;-74
2023/05/19 10:59:38;;;;;;;;;;;;;;;24.41;36.03;92762.94;2058510;69;20078;-76
2023/05/19 11:02:04;;;;;;;;;;;;;;;28.41;29.32;92763.41;2058138;69;20082;-79
2023/05/19 11:04:46;;;;;;;;;;;;;;;32.55;26.47;92766.97;2058169;69;20494;-74
2023/05/19 11:07:19;;;;;;;;;;;;;;;33.66;23.79;92768.09;2058065;69;20162;-75
2023/05/19 11:09:49;;;;;;;;;;;;;;;30.88;25.21;92762.56;2058128;69;20137;-76
2023/05/19 11:12:18;;;;;;;;;;;;;;;34.86;24.09;92761.91;2058416;69;20050;-76
2023/05/19 11:14:43;;;;;;;;;;;;;;;32.75;25.25;92754.13;2058252;69;20050;-76
2023/05/19 11:17:12;;;;;;;;;;;;;;;34.93;23.39;92754.38;2058083;69;20065;-76
2023/05/19 11:19:40;;;;;;;;;;;;;;;33.46;22.34;92749.63;2058129;69;20120;-76
2023/05/19 11:22:09;;;;;;;;;;;;;;;33.95;22.60;92745.47;2058087;69;20096;-76
2023/05/19 11:24:36;;;;;;;;;;;;;;;35.84;21.15;92744.19;2058157;69;20569;-76
2023/05/19 11:27:20;;;;;;;;;;;;;;;33.75;23.82;92735.00;2058144;69;20486;-77
2023/05/19 11:29:47;;;;;;;;;;;;;;;34.76;22.72;92724.19;2055060;69;20088;-76
2023/05/19 11:32:12;;;;;;;;;;;;;;;33.94;22.16;92729.41;2054991;70;20076;-76
2023/05/19 11:34:38;;;;;;;;;;;;;;;36.63;21.62;92731.91;2054843;69;20058;-76
2023/05/19 11:37:05;;;;;;;;;;;;;;;37.67;19.76;92736.66;2054727;69;20114;-76
2023/05/19 11:39:31;;;;;;;;;;;;;;;36.83;20.81;92730.41;2054233;70;20066;-76
2023/05/19 11:41:56;;;;;;;;;;;;;;;38.04;20.26;92721.16;2054720;69;20134;-75
2023/05/19 11:44:22;;;;;;;;;;;;;;;34.82;21.83;92710.13;2054864;70;20042;-78
2023/05/19 11:46:47;;;;;;;;;;;;;;;35.75;19.66;92714.47;2054734;69;20043;-77
2023/05/19 11:49:14;;;;;;;;;;;;;;;36.40;19.95;92705.63;2054796;69;20145;-76
2023/05/19 11:51:42;;;;;;;;;;;;;;;36.69;18.60;92711.13;2054797;69;20596;-77
2023/05/19 11:54:09;;;;;;;;;;;;;;;36.84;20.43;92705.47;2054204;70;20493;-80
2023/05/19 11:56:38;;;;;;;;;;;;;;;35.50;20.23;92708.72;2054736;69;20535;-76
2023/05/19 11:59:04;;;;;;;;;;;;;;;33.64;22.96;92690.78;2054723;69;20502;-76
2023/05/19 12:01:30;;;;;;;;;;;;;;;31.82;24.52;92688.31;2054662;70;20117;-77
2023/05/19 12:03:56;;;;;;;;;;;;;;;31.78;25.33;92676.72;2054705;69;20085;-77
2023/05/19 12:06:22;;;;;;;;;;;;;;;29.81;26.26;92681.13;2054129;70;20093;-76
2023/05/19 12:08:49;;;;;;;;;;;;;;;30.29;25.28;92684.22;2054958;70;20086;-76
2023/05/19 12:11:15;;;;;;;;;;;;;;;30.94;25.07;92671.66;2054713;69;20242;-77
2023/05/19 12:13:40;;;;;;;;;;;;;;;31.31;25.65;92676.88;2056845;69;20059;-77
2023/05/19 12:16:07;;;;;;;;;;;;;;;32.00;24.69;92663.22;2055560;69;20413;-76
2023/05/19 12:18:35;;;;;;;;;;;;;;;33.26;22.62;92666.19;2054693;69;20054;-78
2023/05/19 12:21:01;;;;;;;;;;;;;;;31.80;23.59;92662.13;2054965;69;20577;-76
2023/05/19 12:23:29;;;;;;;;;;;;;;;29.51;26.01;92664.78;2054963;69;20046;-77
2023/05/19 12:25:56;;;;;;;;;;;;;;;30.10;24.46;92661.22;2054764;69;20134;-77
2023/05/19 12:28:21;;;;;;;;;;;;;;;31.50;24.97;92669.25;2054878;69;20061;-81
2023/05/19 12:30:48;;;;;;;;;;;;;;;33.89;21.67;92660.94;2054529;70;20043;-77
2023/05/19 12:33:14;;;;;;;;;;;;;;;35.74;19.79;92672.06;2054951;69;20137;-77
2023/05/19 12:35:41;;;;;;;;;;;;;;;33.59;21.24;92659.56;2055007;69;20233;-76
2023/05/19 12:38:06;;;;;;;;;;;;;;;32.89;21.89;92649.59;2054809;69;20053;-76
2023/05/19 12:40:33;;;;;;;;;;;;;;;34.68;20.27;92654.28;2054591;69;20046;-76
2023/05/19 12:42:58;;;;;;;;;;;;;;;32.85;21.95;92649.72;2054695;69;20046;-77
2023/05/19 12:45:26;;;;;;;;;;;;;;;30.78;23.29;92643.56;2054963;69;20073;-77
2023/05/19 12:47:52;;;;;;;;;;;;;;;29.64;24.83;92633.47;2054887;69;20097;-77